Iron Mountain, California
Current Conditions -  °F | °C
As of 10:55 AM on Tuesday 27 Jan 2015 (Local Time) from KPVF Reporting Station
Clear Clear  
Wind Chill: 50°   Ceiling: Unl
Heat Index: 50°   Visibility: 10mi
Dew Point: 39°   Wind: 6mph
Humidity: 66%   Direction: 100°E
Pressure: 30.25"   Gusts: NA
Location:  38.5644°N, 120.32°W
Report Text: KPVF 271855Z AUTO 10005KT 10SM CLR 10/04 A3025 RMK AO1
Loading
Personal Weather Stations






























Interactive Weather Map New forecast layout! Learn more

10-Day Weather Forecast

Advertisements
Track Severe Weather on mobile